This is the latest recevied weather packets stored in our database for station/object OE-11149. If no packets are shown the sender has not sent any weather packets the latest 10 day(s).
| Time | Temp. | Humidity | Pressure | Rain* | Wind** | Luminosity | Snow |
|---|---|---|---|---|---|---|---|
| 1787912720 | 21.11° C | 64% | 852.3 hPa | 0 mm | - | 742 W/m² | - |
| 1787911893 | 20.56° C | 65% | 852.4 hPa | 0 mm | - | 735 W/m² | - |
| 1787911520 | 20.56° C | 66% | 852.5 hPa | 0 mm | - | 722 W/m² | - |
| 1787910919 | 20.56° C | 66% | 852.4 hPa | 0 mm | - | 709 W/m² | - |
| 1787910093 | 19.44° C | 68% | 852.7 hPa | 0 mm | - | 695 W/m² | - |
| 1787909720 | 19.44° C | 69% | 852.8 hPa | 0 mm | - | 682 W/m² | - |
| 1787909120 | 18.89° C | 71% | 852.8 hPa | 0 mm | - | 656 W/m² | - |
| 1787908292 | 18.89° C | 72% | 852.9 hPa | 0 mm | - | 642 W/m² | - |
| 1787907920 | 18.33° C | 72% | 853.2 hPa | 0 mm | - | 623 W/m² | - |
| 1787907320 | 17.78° C | 74% | 853.1 hPa | 0 mm | - | 616 W/m² | - |
| 1787906492 | 17.78° C | 76% | 853.1 hPa | 0 mm | - | 576 W/m² | - |
| 1787906118 | 16.67° C | 79% | 853.3 hPa | 0 mm | - | 450 W/m² | - |
| 1787905518 | 16.11° C | 82% | 853.4 hPa | 0 mm | - | 397 W/m² | - |
| 1787904693 | 15.56° C | 86% | 853.7 hPa | 0 mm | - | 311 W/m² | - |
| 1787904320 | 15° C | 87% | 853.7 hPa | 0 mm | - | 219 W/m² | - |
| 1787903720 | 15° C | 89% | 853.5 hPa | 0 mm | - | 212 W/m² | - |
| 1787902892 | 15° C | 87% | 853.7 hPa | 0 mm | - | 232 W/m² | - |
| 1787902520 | 15.56° C | 86% | 853.5 hPa | 0 mm | - | 265 W/m² | - |
| 1787901920 | 15° C | 90% | 853.3 hPa | 0 mm | - | 245 W/m² | - |
| 1787901092 | 15° C | 90% | 853.2 hPa | 0 mm | - | 192 W/m² | - |
| 1787900719 | 14.44° C | 91% | 853.4 hPa | 0 mm | - | 232 W/m² | - |
| 1787900120 | 14.44° C | 91% | 853.8 hPa | 0 mm | - | 205 W/m² | - |
| 1787899292 | 14.44° C | 92% | 854 hPa | 0 mm | - | 179 W/m² | - |
| 1787898920 | 14.44° C | 92% | 853.6 hPa | 0 mm | - | 192 W/m² | - |
| 1787898320 | 14.44° C | 92% | 853.5 hPa | 0 mm | - | 225 W/m² | - |
* Rain latest hour (hover to see other rain measurements)
** Current wind speed in m/s (hover to see current wind gust speed)